createdAt,value
2018-11-28T00:00:27.980Z,4.35
2018-11-28T00:01:27.701Z,4.35
2018-11-28T00:02:27.708Z,4.32
2018-11-28T00:03:28.057Z,4.28
2018-11-28T00:04:27.962Z,4.24
2018-11-28T00:05:27.914Z,4.24
2018-11-28T00:06:27.918Z,4.22
2018-11-28T00:07:27.683Z,4.18
2018-11-28T00:08:27.787Z,4.18
2018-11-28T00:09:28.042Z,4.18
2018-11-28T00:10:27.655Z,4.19
2018-11-28T00:11:27.676Z,4.19
2018-11-28T00:12:27.694Z,4.19
2018-11-28T00:13:27.798Z,4.18
2018-11-28T00:14:27.732Z,4.18
2018-11-28T00:15:27.742Z,4.19
2018-11-28T00:16:27.772Z,4.19
2018-11-28T00:17:27.703Z,4.19
2018-11-28T00:18:27.712Z,4.22
2018-11-28T00:19:27.664Z,4.19
2018-11-28T00:20:27.935Z,4.18
2018-11-28T00:21:27.812Z,4.14
2018-11-28T00:22:27.664Z,4.11
2018-11-28T00:23:27.730Z,4.11
2018-11-28T00:24:27.650Z,4.1
2018-11-28T00:25:27.642Z,4.14
2018-11-28T00:26:27.840Z,4.14
2018-11-28T00:27:27.656Z,4.17
2018-11-28T00:28:27.684Z,4.17
2018-11-28T00:29:27.663Z,4.19
2018-11-28T00:30:27.737Z,4.17
2018-11-28T00:31:27.646Z,4.17
2018-11-28T00:32:27.650Z,4.18
2018-11-28T00:33:27.638Z,4.19
2018-11-28T00:34:27.645Z,4.18
2018-11-28T00:35:27.625Z,4.17
2018-11-28T00:36:27.638Z,4.14
2018-11-28T00:37:27.626Z,4.14
2018-11-28T00:38:27.640Z,4.14
2018-11-28T00:39:27.743Z,4.12
2018-11-28T00:40:27.634Z,4.11
2018-11-28T00:41:27.696Z,4.12
2018-11-28T00:42:27.744Z,4.11
2018-11-28T00:43:27.708Z,4.11
2018-11-28T00:44:27.690Z,4.11
2018-11-28T00:45:27.652Z,4.11
2018-11-28T00:46:27.658Z,4.11
2018-11-28T00:47:27.660Z,4.14
2018-11-28T00:48:27.692Z,4.12
2018-11-28T00:49:27.697Z,4.12
2018-11-28T00:50:27.715Z,4.12
2018-11-28T00:51:27.819Z,4.14
2018-11-28T00:52:27.668Z,4.14
2018-11-28T00:53:27.706Z,4.17
2018-11-28T00:54:27.990Z,4.15
2018-11-28T00:55:27.786Z,4.15
2018-11-28T00:56:27.698Z,4.17
2018-11-28T00:57:27.669Z,4.17
2018-11-28T00:58:27.773Z,4.15
2018-11-28T00:59:27.991Z,4.15
2018-11-28T01:00:27.634Z,4.18
2018-11-28T01:01:27.726Z,4.17
2018-11-28T01:02:27.692Z,4.17
2018-11-28T01:03:27.972Z,4.15
2018-11-28T01:04:27.914Z,4.18
2018-11-28T01:05:27.652Z,4.18
2018-11-28T01:06:27.942Z,4.18
2018-11-28T01:07:27.644Z,4.17
2018-11-28T01:08:27.661Z,4.17
2018-11-28T01:09:27.579Z,4.18
2018-11-28T01:10:27.628Z,4.18
2018-11-28T01:11:27.609Z,4.17
2018-11-28T01:12:27.579Z,4.21
2018-11-28T01:13:28.458Z,4.19
2018-11-28T01:14:27.631Z,4.18
2018-11-28T01:15:27.622Z,4.17
2018-11-28T01:16:27.629Z,4.15
2018-11-28T01:17:27.736Z,4.17
2018-11-28T01:18:27.623Z,4.15
2018-11-28T01:19:27.617Z,4.15
2018-11-28T01:20:27.831Z,4.14
2018-11-28T01:21:28.128Z,4.14
2018-11-28T01:22:27.788Z,4.14
2018-11-28T01:23:27.594Z,4.14
2018-11-28T01:24:28.091Z,4.12
2018-11-28T01:25:27.676Z,4.14
2018-11-28T01:26:27.852Z,4.12
2018-11-28T01:27:27.584Z,4.14
2018-11-28T01:28:27.955Z,4.12
2018-11-28T01:29:27.628Z,4.12
2018-11-28T01:30:27.778Z,4.12
2018-11-28T01:31:27.760Z,4.1
2018-11-28T01:32:27.589Z,4.1
2018-11-28T01:33:27.713Z,4.08
2018-11-28T01:34:27.563Z,4.11
2018-11-28T01:35:27.573Z,4.08
2018-11-28T01:36:27.718Z,4.07
2018-11-28T01:37:27.572Z,4.05
2018-11-28T01:38:27.644Z,4.05
2018-11-28T01:39:27.595Z,4.04
2018-11-28T01:40:27.698Z,3.98
2018-11-28T01:41:27.720Z,4.01
2018-11-28T01:42:27.698Z,3.97
2018-11-28T01:43:27.544Z,3.94
2018-11-28T01:44:27.780Z,3.94
2018-11-28T01:45:27.734Z,3.96
2018-11-28T01:46:27.640Z,3.97
2018-11-28T01:47:27.628Z,3.94
2018-11-28T01:48:27.774Z,3.93
2018-11-28T01:49:27.606Z,3.93
2018-11-28T01:50:27.772Z,3.94
2018-11-28T01:51:27.538Z,3.93
2018-11-28T01:52:27.558Z,3.91
2018-11-28T01:53:27.757Z,3.94
2018-11-28T01:54:27.574Z,3.93
2018-11-28T01:55:27.729Z,3.91
2018-11-28T01:56:27.733Z,3.9
2018-11-28T01:57:27.582Z,3.9
2018-11-28T01:58:27.514Z,3.87
2018-11-28T01:59:27.549Z,3.86
2018-11-28T02:00:27.511Z,3.89
2018-11-28T02:01:27.541Z,3.86
2018-11-28T02:02:27.552Z,3.84
2018-11-28T02:03:27.518Z,3.83
2018-11-28T02:04:27.525Z,3.87
2018-11-28T02:05:27.541Z,3.86
2018-11-28T02:06:27.540Z,3.83
2018-11-28T02:07:27.533Z,3.84
2018-11-28T02:08:27.579Z,3.86
2018-11-28T02:09:27.561Z,3.83
2018-11-28T02:10:27.516Z,3.84
2018-11-28T02:11:27.556Z,3.82
2018-11-28T02:12:27.553Z,3.82
2018-11-28T02:13:27.561Z,3.79
2018-11-28T02:14:27.495Z,3.77
2018-11-28T02:15:27.503Z,3.79
2018-11-28T02:16:27.501Z,3.76
2018-11-28T02:17:27.521Z,3.76
2018-11-28T02:18:27.543Z,3.77
2018-11-28T02:19:27.496Z,3.76
2018-11-28T02:20:27.597Z,3.76
2018-11-28T02:21:27.496Z,3.77
2018-11-28T02:22:27.534Z,3.74
2018-11-28T02:23:27.459Z,3.74
2018-11-28T02:24:27.635Z,3.73
2018-11-28T02:25:27.545Z,3.74
2018-11-28T02:26:27.545Z,3.74
2018-11-28T02:27:27.503Z,3.74
2018-11-28T02:28:27.547Z,3.72
2018-11-28T02:29:27.665Z,3.7
2018-11-28T02:30:27.567Z,3.67
2018-11-28T02:31:27.648Z,3.65
2018-11-28T02:32:27.476Z,3.61
2018-11-28T02:33:28.201Z,3.59
2018-11-28T02:34:27.512Z,3.59
2018-11-28T02:35:27.700Z,3.56
2018-11-28T02:36:27.581Z,3.58
2018-11-28T02:37:27.492Z,3.56
2018-11-28T02:38:27.498Z,3.58
2018-11-28T02:39:27.652Z,3.56
2018-11-28T02:40:27.679Z,3.58
2018-11-28T02:41:27.483Z,3.56
2018-11-28T02:42:27.496Z,3.58
2018-11-28T02:43:27.663Z,3.56
2018-11-28T02:44:27.506Z,3.56
2018-11-28T02:45:27.707Z,3.58
2018-11-28T02:46:27.459Z,3.56
2018-11-28T02:47:27.480Z,3.56
2018-11-28T02:48:27.502Z,3.56
2018-11-28T02:49:27.569Z,3.56
2018-11-28T02:50:27.638Z,3.54
2018-11-28T02:51:27.568Z,3.54
2018-11-28T02:52:27.685Z,3.54
2018-11-28T02:53:27.654Z,3.49
2018-11-28T02:54:27.718Z,3.49
2018-11-28T02:55:27.728Z,3.51
2018-11-28T02:56:27.703Z,3.49
2018-11-28T02:57:27.446Z,3.49
2018-11-28T02:58:27.470Z,3.46
2018-11-28T02:59:27.445Z,3.46
2018-11-28T03:00:27.645Z,3.45
2018-11-28T03:01:27.559Z,3.39
2018-11-28T03:02:27.581Z,3.35
2018-11-28T03:03:27.811Z,3.37
2018-11-28T03:04:27.429Z,3.38
2018-11-28T03:05:27.466Z,3.37
2018-11-28T03:06:27.481Z,3.37
2018-11-28T03:07:27.606Z,3.35
2018-11-28T03:08:27.482Z,3.34
2018-11-28T03:09:27.543Z,3.29
2018-11-28T03:10:27.448Z,3.32
2018-11-28T03:11:27.436Z,3.32
2018-11-28T03:12:27.631Z,3.29
2018-11-28T03:13:27.629Z,3.27
2018-11-28T03:14:27.402Z,3.27
2018-11-28T03:15:27.619Z,3.25
2018-11-28T03:16:27.486Z,3.24
2018-11-28T03:17:27.442Z,3.2
2018-11-28T03:18:27.464Z,3.18
2018-11-28T03:19:27.590Z,3.18
2018-11-28T03:20:27.520Z,3.18
2018-11-28T03:21:27.458Z,3.2
2018-11-28T03:22:27.545Z,3.17
2018-11-28T03:23:27.489Z,3.21
2018-11-28T03:24:27.409Z,3.2
2018-11-28T03:25:27.607Z,3.17
2018-11-28T03:26:27.497Z,3.15
2018-11-28T03:27:27.793Z,3.15
2018-11-28T03:28:27.493Z,3.17
2018-11-28T03:29:27.546Z,3.17
2018-11-28T03:30:27.711Z,3.17
2018-11-28T03:31:27.453Z,3.2
2018-11-28T03:32:27.520Z,3.18
2018-11-28T03:33:27.523Z,3.18
2018-11-28T03:34:27.958Z,3.2
2018-11-28T03:35:27.595Z,3.21
2018-11-28T03:36:27.477Z,3.17
2018-11-28T03:37:27.413Z,3.15
2018-11-28T03:38:27.507Z,3.17
2018-11-28T03:39:27.463Z,3.14
2018-11-28T03:40:27.390Z,3.12
2018-11-28T03:41:27.424Z,3.11
2018-11-28T03:42:27.465Z,3.11
2018-11-28T03:43:27.403Z,3.11
2018-11-28T03:44:27.891Z,3.11
2018-11-28T03:45:27.422Z,3.1
2018-11-28T03:46:27.409Z,3.1
2018-11-28T03:47:27.400Z,3.11
2018-11-28T03:48:27.405Z,3.12
2018-11-28T03:49:27.431Z,3.11
2018-11-28T03:50:27.419Z,3.14
2018-11-28T03:51:27.459Z,3.14
2018-11-28T03:52:27.425Z,3.14
2018-11-28T03:53:27.405Z,3.15
2018-11-28T03:54:27.379Z,3.12
2018-11-28T03:55:27.419Z,3.12
2018-11-28T03:56:27.394Z,3.11
2018-11-28T03:57:27.399Z,3.11
2018-11-28T03:58:27.398Z,3.11
2018-11-28T03:59:27.464Z,3.1
2018-11-28T04:00:27.426Z,3.07
2018-11-28T04:01:27.629Z,3.08
2018-11-28T04:02:27.520Z,3.07
2018-11-28T04:03:27.434Z,3.08
2018-11-28T04:04:27.484Z,3.1
2018-11-28T04:05:27.398Z,3.08
2018-11-28T04:06:27.414Z,3.08
2018-11-28T04:07:27.461Z,3.1
2018-11-28T04:08:27.376Z,3.11
2018-11-28T04:09:27.577Z,3.11
2018-11-28T04:10:27.464Z,3.14
2018-11-28T04:11:28.111Z,3.14
2018-11-28T04:12:27.637Z,3.12
2018-11-28T04:13:27.472Z,3.15
2018-11-28T04:14:27.405Z,3.12
2018-11-28T04:15:27.528Z,3.14
2018-11-28T04:16:27.375Z,3.11
2018-11-28T04:17:27.378Z,3.12
2018-11-28T04:18:27.679Z,3.11
2018-11-28T04:19:27.415Z,3.07
2018-11-28T04:20:27.483Z,3.1
2018-11-28T04:21:27.510Z,3.07
2018-11-28T04:22:27.362Z,3.06
2018-11-28T04:23:27.580Z,3.07
2018-11-28T04:24:27.735Z,3.06
2018-11-28T04:25:27.504Z,3.04
2018-11-28T04:26:27.345Z,3.06
2018-11-28T04:27:27.469Z,3.07
2018-11-28T04:28:27.420Z,3.04
2018-11-28T04:29:27.460Z,3.06
2018-11-28T04:30:27.377Z,3.03
2018-11-28T04:31:27.550Z,3
2018-11-28T04:32:27.370Z,2.93
2018-11-28T04:33:27.374Z,2.97
2018-11-28T04:34:27.439Z,2.92
2018-11-28T04:35:27.883Z,2.92
2018-11-28T04:36:27.537Z,2.94
2018-11-28T04:37:27.333Z,2.93
2018-11-28T04:38:27.468Z,2.94
2018-11-28T04:39:27.468Z,2.94
2018-11-28T04:40:27.599Z,2.96
2018-11-28T04:41:27.328Z,2.94
2018-11-28T04:42:27.476Z,2.93
2018-11-28T04:43:27.450Z,2.92
2018-11-28T04:44:27.579Z,2.92
2018-11-28T04:45:27.539Z,2.9
2018-11-28T04:46:27.379Z,2.92
2018-11-28T04:47:27.326Z,2.89
2018-11-28T04:48:27.374Z,2.89
2018-11-28T04:49:27.314Z,2.9
2018-11-28T04:50:27.368Z,2.92
2018-11-28T04:51:27.400Z,2.92
2018-11-28T04:52:27.361Z,2.93
2018-11-28T04:53:27.435Z,2.89
2018-11-28T04:54:27.398Z,2.9
2018-11-28T04:55:27.304Z,2.9
2018-11-28T04:56:27.319Z,2.92
2018-11-28T04:57:27.429Z,2.93
2018-11-28T04:58:27.441Z,2.94
2018-11-28T04:59:27.446Z,2.93
2018-11-28T05:00:27.421Z,2.94
2018-11-28T05:01:27.512Z,2.96
2018-11-28T05:02:27.416Z,2.99
2018-11-28T05:03:27.306Z,2.97
2018-11-28T05:04:27.500Z,2.99
2018-11-28T05:05:27.314Z,2.97
2018-11-28T05:06:27.427Z,2.99
2018-11-28T05:07:27.436Z,2.99
2018-11-28T05:08:27.526Z,2.97
2018-11-28T05:09:27.537Z,2.94
2018-11-28T05:10:27.415Z,2.96
2018-11-28T05:11:28.144Z,2.99
2018-11-28T05:12:27.419Z,2.99
2018-11-28T05:13:27.373Z,3.06
2018-11-28T05:14:27.550Z,3.01
2018-11-28T05:15:27.353Z,3
2018-11-28T05:16:27.460Z,2.97
2018-11-28T05:17:27.424Z,2.96
2018-11-28T05:18:27.290Z,2.97
2018-11-28T05:19:27.278Z,2.96
2018-11-28T05:20:27.318Z,2.96
2018-11-28T05:21:27.328Z,2.99
2018-11-28T05:22:27.297Z,2.97
2018-11-28T05:23:27.256Z,2.97
2018-11-28T05:24:27.229Z,2.94
2018-11-28T05:25:28.349Z,2.97
2018-11-28T05:26:27.238Z,2.96
2018-11-28T05:27:27.394Z,2.93
2018-11-28T05:28:27.268Z,2.97
2018-11-28T05:29:27.246Z,2.94
2018-11-28T05:30:27.293Z,2.9
2018-11-28T05:31:27.291Z,2.99
2018-11-28T05:32:27.293Z,2.93
2018-11-28T05:33:27.262Z,2.94
2018-11-28T05:34:27.232Z,2.96
2018-11-28T05:35:27.289Z,2.96
2018-11-28T05:36:28.420Z,3.01
2018-11-28T05:37:27.311Z,2.96
2018-11-28T05:38:27.265Z,2.97
2018-11-28T05:39:27.296Z,2.99
2018-11-28T05:40:27.645Z,2.96
2018-11-28T05:41:29.682Z,2.97
2018-11-28T05:42:27.538Z,2.93
2018-11-28T05:43:27.280Z,2.89
2018-11-28T05:44:27.281Z,2.93
2018-11-28T05:45:27.768Z,2.9
2018-11-28T05:46:27.376Z,2.94
2018-11-28T05:47:27.193Z,2.94
2018-11-28T05:48:27.419Z,2.92
2018-11-28T05:49:27.276Z,2.89
2018-11-28T05:50:27.507Z,2.93
2018-11-28T05:51:27.230Z,2.94
2018-11-28T05:52:27.341Z,2.94
2018-11-28T05:53:27.409Z,2.97
2018-11-28T05:54:27.319Z,2.96
2018-11-28T05:55:27.422Z,2.94
2018-11-28T05:56:27.447Z,2.94
2018-11-28T05:57:27.225Z,2.97
2018-11-28T05:58:27.296Z,2.94
2018-11-28T05:59:27.762Z,2.94
2018-11-28T06:00:28.073Z,2.93
2018-11-28T06:01:28.043Z,2.94
2018-11-28T06:02:27.305Z,2.94
2018-11-28T06:03:27.211Z,2.93
2018-11-28T06:04:27.212Z,2.94
2018-11-28T06:05:27.508Z,2.94
2018-11-28T06:06:27.399Z,2.94
2018-11-28T06:07:27.413Z,2.96
2018-11-28T06:08:27.222Z,3
2018-11-28T06:09:27.628Z,3.01
2018-11-28T06:10:27.279Z,3.06
2018-11-28T06:11:27.334Z,3.04
2018-11-28T06:12:27.249Z,3.07
2018-11-28T06:13:27.195Z,3.07
2018-11-28T06:14:27.369Z,3.07
2018-11-28T06:15:27.300Z,3.08
2018-11-28T06:16:27.213Z,3.1
2018-11-28T06:17:27.257Z,3.11
2018-11-28T06:18:27.381Z,3.11
2018-11-28T06:19:27.269Z,3.14
2018-11-28T06:20:27.402Z,3.06
2018-11-28T06:21:27.195Z,3.1
2018-11-28T06:22:27.245Z,3.11
2018-11-28T06:23:27.246Z,3.12
2018-11-28T06:24:27.306Z,3.1
2018-11-28T06:25:27.619Z,3.14
2018-11-28T06:26:27.250Z,3.15
2018-11-28T06:27:27.366Z,3.14
2018-11-28T06:28:27.350Z,3.15
2018-11-28T06:29:27.255Z,3.15
2018-11-28T06:30:27.404Z,3.11
2018-11-28T06:31:27.235Z,3.11
2018-11-28T06:32:27.336Z,3.17
2018-11-28T06:33:27.390Z,3.2
2018-11-28T06:34:27.305Z,3.2
2018-11-28T06:35:27.506Z,3.2
2018-11-28T06:36:27.464Z,3.22
2018-11-28T06:37:27.261Z,3.21
2018-11-28T06:38:27.165Z,3.2
2018-11-28T06:39:27.281Z,3.14
2018-11-28T06:40:27.287Z,3.11
2018-11-28T06:41:27.335Z,3.08
2018-11-28T06:42:27.249Z,3.1
2018-11-28T06:43:27.260Z,3.14
2018-11-28T06:44:27.287Z,3.12
2018-11-28T06:45:27.654Z,3.15
2018-11-28T06:46:27.265Z,3.12
2018-11-28T06:47:27.241Z,3.11
2018-11-28T06:48:27.310Z,3.14
2018-11-28T06:49:27.300Z,3.14
2018-11-28T06:50:27.237Z,3.12
2018-11-28T06:51:27.504Z,3.11
2018-11-28T06:52:27.143Z,3.15
2018-11-28T06:53:27.210Z,3.17
2018-11-28T06:54:27.281Z,3.17
2018-11-28T06:55:27.268Z,3.15
2018-11-28T06:56:27.295Z,3.08
2018-11-28T06:57:27.154Z,3.1
2018-11-28T06:58:27.148Z,3.14
2018-11-28T06:59:27.204Z,3.1
2018-11-28T07:00:27.119Z,3.12
2018-11-28T07:01:27.162Z,3.11
2018-11-28T07:02:27.126Z,3.14
2018-11-28T07:03:27.155Z,3.12
2018-11-28T07:04:28.179Z,3.06
2018-11-28T07:05:27.558Z,3.11
2018-11-28T07:06:27.156Z,3.11
2018-11-28T07:07:27.124Z,3.11
2018-11-28T07:08:27.166Z,3.11
2018-11-28T07:09:27.167Z,3.11
2018-11-28T07:10:27.232Z,3.1
2018-11-28T07:11:27.135Z,3.11
2018-11-28T07:12:27.245Z,3.07
2018-11-28T07:13:27.176Z,3.1
2018-11-28T07:14:27.258Z,3.08
2018-11-28T07:15:27.145Z,3.06
2018-11-28T07:16:27.279Z,3.06
2018-11-28T07:17:27.138Z,3.07
2018-11-28T07:18:27.157Z,3.1
2018-11-28T07:19:27.237Z,3.12
2018-11-28T07:20:27.171Z,3.1
2018-11-28T07:21:27.157Z,3.11
2018-11-28T07:22:27.242Z,3.14
2018-11-28T07:23:27.171Z,3.1
2018-11-28T07:24:27.319Z,3.11
2018-11-28T07:25:27.540Z,3.06
2018-11-28T07:26:27.185Z,3.1
2018-11-28T07:27:27.196Z,3.1
2018-11-28T07:28:27.671Z,3.06
2018-11-28T07:29:27.173Z,3.08
2018-11-28T07:30:27.260Z,3.04
2018-11-28T07:31:27.222Z,3.01
2018-11-28T07:32:27.207Z,3.1
2018-11-28T07:33:27.245Z,3.07
2018-11-28T07:34:27.130Z,3.1
2018-11-28T07:35:27.536Z,3.11
2018-11-28T07:36:27.300Z,3.14
2018-11-28T07:37:27.144Z,3.1
2018-11-28T07:38:27.517Z,3.06
2018-11-28T07:39:27.471Z,3.04
2018-11-28T07:40:27.187Z,3.1
2018-11-28T07:41:27.165Z,3.12
2018-11-28T07:42:27.138Z,3.08
2018-11-28T07:43:27.103Z,3.12
2018-11-28T07:44:27.195Z,3.15
2018-11-28T07:45:27.243Z,3.14
2018-11-28T07:46:28.186Z,3.17
2018-11-28T07:47:28.010Z,3.18
2018-11-28T07:48:27.112Z,3.17
2018-11-28T07:49:27.304Z,3.14
2018-11-28T07:50:27.070Z,3.18
2018-11-28T07:51:27.113Z,3.17
2018-11-28T07:52:27.187Z,3.11
2018-11-28T07:53:27.064Z,3.1
2018-11-28T07:54:27.089Z,3.08
2018-11-28T07:55:27.649Z,3.1
2018-11-28T07:56:27.097Z,3.1
2018-11-28T07:57:27.069Z,3.1
2018-11-28T07:58:27.117Z,3.1
2018-11-28T07:59:27.088Z,3.1
2018-11-28T08:00:27.176Z,3.1
2018-11-28T08:01:27.157Z,3.1
2018-11-28T08:02:27.191Z,3.11
2018-11-28T08:03:27.097Z,3.1
2018-11-28T08:04:27.213Z,3.1
2018-11-28T08:05:27.401Z,3.12
2018-11-28T08:06:27.541Z,3.1
2018-11-28T08:07:27.043Z,3.12
2018-11-28T08:08:27.054Z,3.12
2018-11-28T08:09:27.257Z,3.14
2018-11-28T08:10:27.279Z,3.12
2018-11-28T08:11:27.172Z,3.14
2018-11-28T08:12:27.126Z,3.12
2018-11-28T08:13:27.160Z,3.12
2018-11-28T08:14:27.212Z,3.14
2018-11-28T08:15:27.140Z,3.14
2018-11-28T08:16:27.023Z,3.14
2018-11-28T08:17:27.439Z,3.14
2018-11-28T08:18:27.059Z,3.14
2018-11-28T08:19:27.039Z,3.12
2018-11-28T08:20:27.221Z,3.15
2018-11-28T08:21:27.236Z,3.14
2018-11-28T08:22:27.501Z,3.12
2018-11-28T08:23:28.305Z,3.14
2018-11-28T08:24:27.158Z,3.14
2018-11-28T08:25:28.254Z,3.12
2018-11-28T08:26:27.492Z,3.14
2018-11-28T08:27:27.050Z,3.14
2018-11-28T08:28:27.172Z,3.21
2018-11-28T08:29:27.047Z,3.21
2018-11-28T08:30:27.100Z,3.18
2018-11-28T08:31:27.100Z,3.18
2018-11-28T08:32:27.082Z,3.2
2018-11-28T08:33:27.449Z,3.18
2018-11-28T08:34:27.253Z,3.2
2018-11-28T08:35:27.034Z,3.2
2018-11-28T08:36:27.069Z,3.21
2018-11-28T08:37:27.207Z,3.2
2018-11-28T08:38:27.078Z,3.18
2018-11-28T08:39:27.002Z,3.2
2018-11-28T08:40:27.218Z,3.22
2018-11-28T08:41:27.012Z,3.2
2018-11-28T08:42:27.120Z,3.18
2018-11-28T08:43:27.072Z,3.22
2018-11-28T08:44:27.038Z,3.18
2018-11-28T08:45:27.057Z,3.2
2018-11-28T08:46:27.117Z,3.17
2018-11-28T08:47:27.276Z,3.2
2018-11-28T08:48:27.000Z,3.22
2018-11-28T08:49:26.999Z,3.22
2018-11-28T08:50:26.977Z,3.21
2018-11-28T08:51:27.289Z,3.21
2018-11-28T08:52:27.042Z,3.22
2018-11-28T08:53:27.096Z,3.22
2018-11-28T08:54:26.981Z,3.22
2018-11-28T08:55:27.040Z,3.22
2018-11-28T08:56:27.016Z,3.24
2018-11-28T08:57:26.970Z,3.22
2018-11-28T08:58:27.164Z,3.2
2018-11-28T08:59:27.059Z,3.21
2018-11-28T09:00:27.108Z,3.2
2018-11-28T09:01:27.231Z,3.21
2018-11-28T09:02:27.139Z,3.22
2018-11-28T09:03:27.135Z,3.27
2018-11-28T09:04:27.332Z,3.29
2018-11-28T09:05:27.028Z,3.27
2018-11-28T09:06:27.035Z,3.25
2018-11-28T09:07:27.233Z,3.27
2018-11-28T09:08:27.006Z,3.25
2018-11-28T09:09:27.005Z,3.28
2018-11-28T09:10:27.370Z,3.29
2018-11-28T09:11:27.063Z,3.32
2018-11-28T09:12:27.096Z,3.34
2018-11-28T09:13:27.321Z,3.34
2018-11-28T09:14:27.359Z,3.35
2018-11-28T09:15:27.192Z,3.38
2018-11-28T09:16:26.987Z,3.41
2018-11-28T09:17:27.000Z,3.44
2018-11-28T09:18:26.967Z,3.44
2018-11-28T09:19:26.973Z,3.42
2018-11-28T09:20:27.259Z,3.42
2018-11-28T09:21:27.059Z,3.44
2018-11-28T09:22:27.012Z,3.46
2018-11-28T09:23:27.099Z,3.48
2018-11-28T09:24:26.995Z,3.49
2018-11-28T09:25:26.991Z,3.51
2018-11-28T09:26:26.987Z,3.51
2018-11-28T09:27:26.948Z,3.49
2018-11-28T09:28:26.969Z,3.52
2018-11-28T09:29:27.115Z,3.49
2018-11-28T09:30:27.007Z,3.51
2018-11-28T09:31:27.099Z,3.52
2018-11-28T09:32:27.029Z,3.56
2018-11-28T09:33:27.215Z,3.58
2018-11-28T09:34:27.103Z,3.59
2018-11-28T09:35:27.139Z,3.58
2018-11-28T09:36:27.020Z,3.62
2018-11-28T09:37:27.018Z,3.62
2018-11-28T09:38:26.995Z,3.62
2018-11-28T09:39:27.313Z,3.66
2018-11-28T09:40:27.058Z,3.66
2018-11-28T09:41:26.928Z,3.67
2018-11-28T09:42:27.065Z,3.66
2018-11-28T09:43:26.980Z,3.69
2018-11-28T09:44:27.068Z,3.73
2018-11-28T09:45:26.994Z,3.72
2018-11-28T09:46:26.977Z,3.76
2018-11-28T09:47:26.968Z,3.76
2018-11-28T09:48:26.994Z,3.77
2018-11-28T09:49:27.269Z,3.77
2018-11-28T09:50:27.051Z,3.8
2018-11-28T09:51:26.953Z,3.84
2018-11-28T09:52:27.005Z,3.89
2018-11-28T09:53:27.071Z,3.96
2018-11-28T09:54:27.098Z,3.94
2018-11-28T09:55:27.095Z,3.94
2018-11-28T09:56:27.782Z,4.04
2018-11-28T09:57:26.984Z,4.12
2018-11-28T09:58:26.900Z,4.18
2018-11-28T09:59:27.121Z,4.11
2018-11-28T10:00:27.158Z,4.1
2018-11-28T10:01:26.931Z,4.08
2018-11-28T10:02:26.990Z,4.14
2018-11-28T10:03:27.185Z,4.25
2018-11-28T10:04:26.901Z,4.39
2018-11-28T10:05:27.093Z,4.32
2018-11-28T10:06:26.992Z,4.35
2018-11-28T10:07:27.061Z,4.32
2018-11-28T10:08:27.051Z,4.28
2018-11-28T10:09:27.026Z,4.25
2018-11-28T10:10:27.059Z,4.21
2018-11-28T10:11:27.124Z,4.19
2018-11-28T10:12:27.026Z,4.21
2018-11-28T10:13:27.135Z,4.22
2018-11-28T10:14:26.896Z,4.18
2018-11-28T10:15:26.988Z,4.22
2018-11-28T10:16:27.023Z,4.18
2018-11-28T10:17:27.000Z,4.22
2018-11-28T10:18:26.900Z,4.24
2018-11-28T10:19:27.175Z,4.22
2018-11-28T10:20:27.031Z,4.24
2018-11-28T10:21:27.269Z,4.24
2018-11-28T10:22:26.926Z,4.25
2018-11-28T10:23:27.008Z,4.26
2018-11-28T10:24:27.049Z,4.29
2018-11-28T10:25:27.263Z,4.28
2018-11-28T10:26:26.935Z,4.26
2018-11-28T10:27:27.024Z,4.26
2018-11-28T10:28:27.032Z,4.29
2018-11-28T10:29:26.955Z,4.3
2018-11-28T10:30:27.148Z,4.3
2018-11-28T10:31:27.069Z,4.35
2018-11-28T10:32:26.838Z,4.36
2018-11-28T10:33:26.950Z,4.39
2018-11-28T10:34:29.740Z,4.42
2018-11-28T10:35:26.957Z,4.4
2018-11-28T10:36:27.124Z,4.45
2018-11-28T10:37:26.956Z,4.46
2018-11-28T10:38:27.105Z,4.48
2018-11-28T10:39:26.856Z,4.49
2018-11-28T10:40:26.876Z,4.51
2018-11-28T10:41:26.985Z,4.52
2018-11-28T10:42:26.975Z,4.53
2018-11-28T10:43:27.002Z,4.56
2018-11-28T10:44:27.005Z,4.59
2018-11-28T10:45:26.959Z,4.59
2018-11-28T10:46:27.788Z,4.63
2018-11-28T10:47:26.876Z,4.66
2018-11-28T10:48:27.018Z,4.69
2018-11-28T10:49:26.871Z,4.67
2018-11-28T10:50:26.945Z,4.7
2018-11-28T10:51:27.130Z,4.74
2018-11-28T10:52:27.046Z,4.77
2018-11-28T10:53:26.905Z,4.8
2018-11-28T10:54:27.220Z,4.83
2018-11-28T10:55:26.879Z,4.86
2018-11-28T10:56:27.125Z,4.87
2018-11-28T10:57:27.093Z,4.87
2018-11-28T10:58:27.730Z,4.91
2018-11-28T10:59:27.077Z,4.91
2018-11-28T11:00:26.798Z,4.95
2018-11-28T11:01:27.116Z,4.94
2018-11-28T11:02:26.927Z,4.97
2018-11-28T11:03:26.818Z,4.98
2018-11-28T11:04:27.211Z,5.01
2018-11-28T11:05:27.131Z,5.02
2018-11-28T11:06:27.205Z,5.04
2018-11-28T11:07:26.965Z,5.04
2018-11-28T11:08:27.060Z,5.05
2018-11-28T11:09:27.218Z,5.07
2018-11-28T11:10:26.902Z,5.08
2018-11-28T11:11:26.937Z,5.12
2018-11-28T11:12:27.031Z,5.12
2018-11-28T11:13:26.786Z,5.11
2018-11-28T11:14:26.947Z,5.15
2018-11-28T11:15:27.004Z,5.18
2018-11-28T11:16:26.993Z,5.19
2018-11-28T11:17:27.033Z,5.23
2018-11-28T11:18:27.515Z,5.26
2018-11-28T11:19:26.800Z,5.35
2018-11-28T11:20:26.784Z,5.33
2018-11-28T11:21:27.116Z,5.42
2018-11-28T11:22:26.985Z,5.47
2018-11-28T11:23:27.205Z,5.53
2018-11-28T11:24:27.039Z,5.59
2018-11-28T11:25:26.810Z,5.62
2018-11-28T11:26:27.245Z,5.7
2018-11-28T11:27:26.963Z,5.7
2018-11-28T11:28:27.232Z,5.73
2018-11-28T11:29:27.109Z,5.71
2018-11-28T11:30:26.803Z,5.71
2018-11-28T11:31:26.768Z,5.7
2018-11-28T11:32:26.892Z,5.71
2018-11-28T11:33:27.068Z,5.74
2018-11-28T11:34:27.091Z,5.75
2018-11-28T11:35:26.838Z,5.78
2018-11-28T11:36:26.892Z,5.8
2018-11-28T11:37:26.797Z,5.8
2018-11-28T11:38:27.023Z,5.83
2018-11-28T11:39:26.857Z,5.84
2018-11-28T11:40:26.792Z,5.81
2018-11-28T11:41:27.162Z,5.83
2018-11-28T11:42:26.774Z,5.85
2018-11-28T11:43:26.808Z,5.84
2018-11-28T11:44:26.770Z,5.81
2018-11-28T11:45:26.785Z,5.83
2018-11-28T11:46:26.752Z,5.84
2018-11-28T11:47:27.282Z,5.85
2018-11-28T11:48:26.746Z,5.9
2018-11-28T11:49:27.055Z,5.9
2018-11-28T11:50:26.744Z,5.83
2018-11-28T11:51:26.807Z,5.83
2018-11-28T11:52:27.693Z,5.85
2018-11-28T11:53:27.212Z,5.87
2018-11-28T11:54:26.775Z,5.85
2018-11-28T11:55:27.122Z,5.87
2018-11-28T11:56:27.559Z,5.9
2018-11-28T11:57:26.779Z,5.92
2018-11-28T11:58:27.141Z,5.91
2018-11-28T11:59:26.819Z,5.9
2018-11-28T12:00:26.800Z,5.91
2018-11-28T12:01:26.808Z,5.91
2018-11-28T12:02:26.811Z,5.94
2018-11-28T12:03:26.857Z,5.94
2018-11-28T12:04:26.752Z,5.95
2018-11-28T12:05:26.761Z,5.95
2018-11-28T12:06:26.728Z,5.91
2018-11-28T12:07:26.782Z,5.91
2018-11-28T12:08:26.957Z,5.95
2018-11-28T12:09:26.770Z,5.94
2018-11-28T12:10:26.804Z,5.92
2018-11-28T12:11:26.841Z,5.92
2018-11-28T12:12:28.451Z,5.95
2018-11-28T12:13:26.763Z,5.98
2018-11-28T12:14:26.820Z,5.97
2018-11-28T12:15:26.699Z,5.97
2018-11-28T12:16:26.776Z,5.98
2018-11-28T12:17:27.571Z,5.98
2018-11-28T12:18:26.780Z,5.98
2018-11-28T12:19:26.729Z,6.02
2018-11-28T12:20:26.771Z,6.02
2018-11-28T12:21:26.726Z,6.01
2018-11-28T12:22:26.740Z,6.06
2018-11-28T12:23:26.750Z,6.05
2018-11-28T12:24:26.928Z,6.02
2018-11-28T12:25:26.788Z,6.05
2018-11-28T12:26:26.939Z,6.05
2018-11-28T12:27:27.348Z,6.08
2018-11-28T12:28:26.835Z,6.05
2018-11-28T12:29:26.727Z,6.05
2018-11-28T12:30:27.051Z,6.06
2018-11-28T12:31:29.617Z,6.05
2018-11-28T12:32:26.785Z,6.06
2018-11-28T12:33:26.699Z,6.06
2018-11-28T12:34:26.772Z,6.11
2018-11-28T12:35:26.756Z,6.08
2018-11-28T12:36:26.826Z,6.13
2018-11-28T12:37:26.933Z,6.12
2018-11-28T12:38:27.106Z,6.13
2018-11-28T12:39:27.003Z,6.18
2018-11-28T12:40:26.711Z,6.18
2018-11-28T12:41:26.970Z,6.2
2018-11-28T12:42:26.878Z,6.18
2018-11-28T12:43:26.928Z,6.18
2018-11-28T12:44:26.868Z,6.23
2018-11-28T12:45:26.676Z,6.22
2018-11-28T12:46:26.744Z,6.25
2018-11-28T12:47:26.988Z,6.25
2018-11-28T12:48:26.820Z,6.29
2018-11-28T12:49:26.720Z,6.28
2018-11-28T12:50:27.087Z,6.28
2018-11-28T12:51:26.979Z,6.33
2018-11-28T12:52:26.820Z,6.33
2018-11-28T12:53:26.699Z,6.33
2018-11-28T12:54:26.979Z,6.33
2018-11-28T12:55:26.711Z,6.33
2018-11-28T12:56:26.844Z,6.32
2018-11-28T12:57:27.069Z,6.35
2018-11-28T12:58:26.680Z,6.33
2018-11-28T12:59:27.038Z,6.36
2018-11-28T13:00:26.686Z,6.36
2018-11-28T13:01:26.682Z,6.39
2018-11-28T13:02:26.751Z,6.36
2018-11-28T13:03:26.759Z,6.37
2018-11-28T13:04:26.795Z,6.39
2018-11-28T13:05:26.848Z,6.39
2018-11-28T13:06:26.941Z,6.4
2018-11-28T13:07:27.525Z,6.39
2018-11-28T13:08:26.648Z,6.39
2018-11-28T13:09:26.694Z,6.37
2018-11-28T13:10:26.648Z,6.36
2018-11-28T13:11:26.624Z,6.37
2018-11-28T13:12:26.654Z,6.39
2018-11-28T13:13:26.621Z,6.39
2018-11-28T13:14:26.795Z,6.37
2018-11-28T13:15:26.695Z,6.4
2018-11-28T13:16:26.771Z,6.4
2018-11-28T13:17:26.708Z,6.41
2018-11-28T13:18:26.833Z,6.41
2018-11-28T13:19:26.889Z,6.41
2018-11-28T13:20:26.615Z,6.41
2018-11-28T13:21:26.659Z,6.39